Time;durP1;ratioP1;P1;durP2;ratioP2;P2;SDS_P1;SDS_P2;PMS_P1;PMS_P2;Temp;Humidity;BMP_temperature;BMP_pressure;BME280_temperature;BME280_humidity;BME280_pressure;Samples;Min_cycle;Max_cycle;Signal;HPM_P1;HPM_P2
2022/03/09 09:55:51;;;;;;;5.20;2.73;;;15.60;33.90;;;;;;4971492;28;88900;-71
2022/03/09 09:58:51;;;;;;;4.30;2.83;;;15.60;33.90;;;;;;4970021;28;90199;-71
2022/03/09 10:01:35;;;;;;;3.47;2.57;;;15.60;34.10;;;;;;4976714;28;90569;-72
2022/03/09 10:04:03;;;;;;;4.93;2.73;;;15.80;34.20;;;;;;4981010;28;88312;-71
2022/03/09 10:06:31;;;;;;;3.73;2.60;;;15.70;34.10;;;;;;4980701;28;88759;-71
2022/03/09 10:09:04;;;;;;;4.97;3.30;;;15.80;34.20;;;;;;4980608;28;90884;-71
2022/03/09 10:11:51;;;;;;;3.90;2.80;;;15.80;34.20;;;;;;4979425;28;89096;-71
2022/03/09 10:14:35;;;;;;;4.87;2.90;;;15.80;34.20;;;;;;4980105;28;89095;-71
2022/03/09 10:17:04;;;;;;;5.27;3.10;;;15.80;34.10;;;;;;4980137;28;88320;-71
2022/03/09 10:19:33;;;;;;;9.27;3.93;;;15.90;34.20;;;;;;4980871;28;91085;-71
2022/03/09 10:22:30;;;;;;;5.63;2.87;;;15.90;34.20;;;;;;4979936;28;89075;-71
2022/03/09 10:25:19;;;;;;;3.53;2.60;;;15.90;34.30;;;;;;4979917;28;88508;-71
2022/03/09 10:27:49;;;;;;;4.93;3.30;;;15.90;34.20;;;;;;4980297;28;88121;-71
2022/03/09 10:30:18;;;;;;;5.83;3.60;;;16.00;34.40;;;;;;4980620;28;90028;-71
2022/03/09 10:32:56;;;;;;;4.07;2.83;;;16.00;34.40;;;;;;4980644;28;90967;-71
2022/03/09 10:35:41;;;;;;;6.40;3.57;;;16.00;34.50;;;;;;4980262;28;88391;-71
2022/03/09 10:38:09;;;;;;;9.03;4.13;;;16.10;34.60;;;;;;4980600;28;88525;-71
2022/03/09 10:40:41;;;;;;;6.70;3.50;;;16.00;34.40;;;;;;4979683;28;90711;-71
2022/03/09 10:43:14;;;;;;;4.30;3.17;;;16.00;34.30;;;;;;4979681;28;88470;-72
2022/03/09 10:45:58;;;;;;;5.27;3.30;;;16.00;34.30;;;;;;4978741;28;88440;-71
2022/03/09 10:48:27;;;;;;;7.47;4.17;;;16.00;34.40;;;;;;4980474;28;88530;-71
2022/03/09 10:50:56;;;;;;;6.27;3.70;;;16.00;34.30;;;;;;4979653;28;90205;-71
2022/03/09 10:53:24;;;;;;;6.50;3.43;;;16.00;34.30;;;;;;4980126;28;90077;-72
2022/03/09 10:55:52;;;;;;;8.60;3.50;;;16.00;34.40;;;;;;4979723;28;88589;-72
2022/03/09 10:58:22;;;;;;;6.07;3.17;;;16.00;34.40;;;;;;4980152;28;88387;-71
2022/03/09 11:00:51;;;;;;;5.77;3.40;;;16.10;34.50;;;;;;4979141;28;89543;-71
2022/03/09 11:03:20;;;;;;;8.10;3.30;;;16.10;34.60;;;;;;4979809;28;90145;-71
2022/03/09 11:05:51;;;;;;;5.87;3.80;;;16.10;34.50;;;;;;4979366;28;88769;-71
2022/03/09 11:08:20;;;;;;;5.83;3.17;;;16.10;34.60;;;;;;4980486;28;88493;-71
2022/03/09 11:10:48;;;;;;;5.57;3.27;;;16.10;34.60;;;;;;4978991;28;89465;-71
2022/03/09 11:13:17;;;;;;;6.47;3.83;;;16.20;34.70;;;;;;4980119;28;92329;-72
2022/03/09 11:15:47;;;;;;;5.80;3.63;;;16.20;34.70;;;;;;4979526;28;89081;-71
2022/03/09 11:18:20;;;;;;;5.27;3.30;;;16.20;34.80;;;;;;4980041;28;88584;-71
2022/03/09 11:20:48;;;;;;;8.10;3.70;;;16.20;34.80;;;;;;4979607;28;90714;-71
2022/03/09 11:23:17;;;;;;;6.43;3.63;;;16.20;34.80;;;;;;4979232;28;90154;-71
2022/03/09 11:25:50;;;;;;;5.77;3.40;;;16.20;34.80;;;;;;4979125;28;88919;-71
2022/03/09 11:28:23;;;;;;;5.67;3.50;;;16.20;34.90;;;;;;4979016;28;88321;-71
2022/03/09 11:30:55;;;;;;;6.13;3.50;;;16.20;35.00;;;;;;4978564;28;90632;-71
2022/03/09 11:33:37;;;;;;;10.43;3.57;;;16.30;35.10;;;;;;4979582;28;90063;-72
2022/03/09 11:36:39;;;;;;;5.73;3.80;;;16.30;35.20;;;;;;4978646;28;89235;-71
2022/03/09 11:39:22;;;;;;;6.00;3.53;;;16.30;35.20;;;;;;4966648;28;88463;-70
2022/03/09 11:41:50;;;;;;;6.70;3.30;;;16.40;35.30;;;;;;4979758;28;90636;-71
2022/03/09 11:44:30;;;;;;;5.40;3.33;;;16.40;35.40;;;;;;4979434;28;89772;-71
2022/03/09 11:47:04;;;;;;;8.03;3.77;;;16.40;35.50;;;;;;4979709;28;88366;-71
2022/03/09 11:49:33;;;;;;;6.57;3.53;;;16.40;35.50;;;;;;4979384;28;88485;-71
2022/03/09 11:52:08;;;;;;;9.90;3.90;;;16.50;35.70;;;;;;4978061;28;90655;-71
2022/03/09 11:54:40;;;;;;;7.03;4.00;;;16.40;35.60;;;;;;4979127;28;92453;-71
2022/03/09 11:57:10;;;;;;;7.00;3.97;;;16.50;35.80;;;;;;4989148;28;88562;-71
2022/03/09 11:59:38;;;;;;;10.53;3.87;;;16.50;35.80;;;;;;4999603;28;88565;-71
2022/03/09 12:02:15;;;;;;;7.47;4.27;;;16.50;35.80;;;;;;4998105;28;90735;-71
2022/03/09 12:04:51;;;;;;;9.00;3.73;;;16.50;35.90;;;;;;4999300;28;88777;-71
2022/03/09 12:07:47;;;;;;;8.53;4.27;;;16.60;36.10;;;;;;4999341;28;88300;-71
2022/03/09 12:10:16;;;;;;;7.30;3.57;;;16.60;36.20;;;;;;4999203;28;88474;-72
2022/03/09 12:13:10;;;;;;;7.17;3.90;;;16.60;36.20;;;;;;4998705;28;93920;-72
2022/03/09 12:16:05;;;;;;;8.77;4.17;;;16.60;36.30;;;;;;4998570;28;89953;-72
2022/03/09 12:18:36;;;;;;;8.60;4.43;;;16.70;36.50;;;;;;4997114;28;89627;-71
2022/03/09 12:21:04;;;;;;;11.50;4.80;;;16.70;36.50;;;;;;4998534;28;88524;-71
2022/03/09 12:23:33;;;;;;;10.17;4.97;;;16.70;36.50;;;;;;4998254;28;90751;-71
2022/03/09 12:26:01;;;;;;;11.00;5.10;;;16.70;36.50;;;;;;4998421;28;89551;-71
2022/03/09 12:28:48;;;;;;;8.70;5.03;;;16.80;36.60;;;;;;4997977;28;88768;-71
2022/03/09 12:31:20;;;;;;;13.53;5.33;;;16.70;36.60;;;;;;4998835;28;88840;-71
2022/03/09 12:33:51;;;;;;;8.43;4.90;;;16.80;36.60;;;;;;4988816;28;89542;-71
2022/03/09 12:36:20;;;;;;;6.50;4.43;;;16.80;36.60;;;;;;4978845;28;90091;-71
2022/03/09 12:38:58;;;;;;;9.20;4.87;;;16.80;36.60;;;;;;4989528;28;88288;-71
2022/03/09 12:41:27;;;;;;;9.33;4.63;;;16.80;36.70;;;;;;5002531;28;88758;-71
2022/03/09 12:43:57;;;;;;;10.37;4.43;;;16.80;36.70;;;;;;5002372;28;92827;-71
2022/03/09 12:46:25;;;;;;;5.93;3.67;;;16.90;36.80;;;;;;5000931;28;89173;-72
2022/03/09 12:49:02;;;;;;;8.73;4.80;;;17.00;36.90;;;;;;5001029;28;88281;-71
2022/03/09 12:51:30;;;;;;;9.97;4.60;;;17.00;36.90;;;;;;5001433;28;88671;-71
2022/03/09 12:54:30;;;;;;;10.73;5.13;;;17.00;37.40;;;;;;5001155;28;91025;-71
2022/03/09 12:57:05;;;;;;;7.77;4.17;;;17.00;36.80;;;;;;4994058;28;88461;-71
2022/03/09 12:59:35;;;;;;;7.43;4.30;;;17.10;36.90;;;;;;4981085;28;88592;-71
2022/03/09 13:02:04;;;;;;;7.53;4.43;;;17.10;36.90;;;;;;4982032;28;89458;-71
2022/03/09 13:04:34;;;;;;;8.03;4.97;;;17.10;37.00;;;;;;4981120;28;90457;-71
2022/03/09 13:07:12;;;;;;;8.57;4.63;;;17.20;37.10;;;;;;4981076;28;90479;-72
2022/03/09 13:09:43;;;;;;;13.90;5.57;;;17.20;37.20;;;;;;4981437;28;88453;-71
2022/03/09 13:12:13;;;;;;;12.33;5.57;;;17.30;37.20;;;;;;4980378;28;88710;-71
2022/03/09 13:14:43;;;;;;;10.43;5.47;;;17.30;37.30;;;;;;4981218;28;91439;-71
2022/03/09 13:17:11;;;;;;;8.93;4.87;;;17.30;37.20;;;;;;4980092;28;88989;-72
2022/03/09 13:19:41;;;;;;;6.53;4.60;;;17.30;37.10;;;;;;4981391;28;88829;-71
2022/03/09 13:22:09;;;;;;;7.43;4.30;;;17.30;37.10;;;;;;4981574;28;88503;-71
2022/03/09 13:24:36;;;;;;;10.93;4.27;;;17.30;37.10;;;;;;4981380;28;91247;-72
2022/03/09 13:27:16;;;;;;;10.87;5.50;;;17.30;37.10;;;;;;4980977;28;89036;-72
2022/03/09 13:29:44;;;;;;;9.27;4.70;;;17.40;37.20;;;;;;4980635;28;88580;-71
2022/03/09 13:32:27;;;;;;;6.73;3.90;;;17.40;37.20;;;;;;4981902;28;88588;-72
2022/03/09 13:34:57;;;;;;;10.93;5.00;;;17.40;37.20;;;;;;4980600;28;90676;-72
2022/03/09 13:37:34;;;;;;;8.93;5.10;;;17.40;37.30;;;;;;4980369;28;90116;-72
2022/03/09 13:40:03;;;;;;;9.40;4.67;;;17.40;37.30;;;;;;4980809;28;89873;-71
2022/03/09 13:42:34;;;;;;;10.47;4.97;;;17.50;37.40;;;;;;4981110;28;88716;-72
2022/03/09 13:45:04;;;;;;;9.20;4.37;;;17.50;37.30;;;;;;4981140;28;90613;-71
2022/03/09 13:47:32;;;;;;;11.70;4.97;;;17.50;37.90;;;;;;4979955;28;89221;-72
2022/03/09 13:50:01;;;;;;;12.40;5.83;;;17.60;37.30;;;;;;4980656;28;88464;-72
2022/03/09 13:52:49;;;;;;;9.07;4.37;;;17.60;37.20;;;;;;4981342;28;88351;-72
2022/03/09 13:55:25;;;;;;;10.27;4.70;;;17.60;37.20;;;;;;4980761;28;89924;-72
2022/03/09 13:58:06;;;;;;;9.63;4.50;;;17.60;37.30;;;;;;4980157;28;89542;-72
2022/03/09 14:00:36;;;;;;;9.23;4.47;;;17.60;37.20;;;;;;4980042;28;89448;-72
2022/03/09 14:03:12;;;;;;;9.23;5.57;;;17.70;37.30;;;;;;4979952;28;88637;-71
2022/03/09 14:06:11;;;;;;;8.40;4.60;;;17.70;37.40;;;;;;4980099;28;91449;-72
2022/03/09 14:08:39;;;;;;;9.97;5.77;;;17.80;37.50;;;;;;4980318;28;89729;-72
2022/03/09 14:11:08;;;;;;;10.07;5.13;;;17.80;37.50;;;;;;4980651;28;89284;-72
2022/03/09 14:13:38;;;;;;;8.97;4.47;;;17.80;37.50;;;;;;4979119;28;88627;-72
2022/03/09 14:16:06;;;;;;;8.47;4.00;;;17.90;37.50;;;;;;4980041;28;92388;-72
2022/03/09 14:18:34;;;;;;;8.00;4.07;;;17.90;37.60;;;;;;4980175;28;89061;-72
2022/03/09 14:21:04;;;;;;;7.93;4.93;;;17.90;37.60;;;;;;4980297;28;88483;-71
2022/03/09 14:23:32;;;;;;;8.80;4.90;;;18.00;37.70;;;;;;4980780;28;88425;-71
2022/03/09 14:26:00;;;;;;;9.93;4.97;;;18.00;37.60;;;;;;4979694;28;90867;-72
2022/03/09 14:28:30;;;;;;;7.90;4.13;;;18.00;37.60;;;;;;4980677;28;91288;-72
2022/03/09 14:30:59;;;;;;;7.33;4.77;;;18.10;37.70;;;;;;4979517;28;88434;-71
2022/03/09 14:33:27;;;;;;;8.00;4.03;;;18.10;37.60;;;;;;4980491;28;88435;-71
2022/03/09 14:35:58;;;;;;;11.57;5.57;;;18.10;37.60;;;;;;4979080;28;90699;-71
2022/03/09 14:38:27;;;;;;;7.13;4.80;;;18.20;37.60;;;;;;4979867;28;90012;-71
2022/03/09 14:40:55;;;;;;;11.17;4.97;;;18.20;37.60;;;;;;4980186;28;89892;-72
2022/03/09 14:43:23;;;;;;;8.50;5.13;;;18.20;37.60;;;;;;4980747;28;88616;-72
2022/03/09 14:45:51;;;;;;;8.30;4.77;;;18.20;37.60;;;;;;4979674;28;89654;-71
2022/03/09 14:48:20;;;;;;;11.93;4.37;;;18.30;37.70;;;;;;4980339;28;88621;-71
2022/03/09 14:50:51;;;;;;;10.13;4.67;;;18.30;37.60;;;;;;4979816;28;88425;-71
2022/03/09 14:53:19;;;;;;;8.30;4.93;;;18.30;37.60;;;;;;4979864;28;88647;-71
2022/03/09 14:55:51;;;;;;;9.60;4.90;;;18.30;37.60;;;;;;4979812;28;91433;-71
2022/03/09 14:58:18;;;;;;;9.87;4.07;;;18.30;37.50;;;;;;4979546;28;90014;-72
2022/03/09 15:00:52;;;;;;;9.20;4.33;;;18.30;37.50;;;;;;4979374;28;88844;-72
2022/03/09 15:03:21;;;;;;;9.37;4.77;;;18.30;37.40;;;;;;4980311;28;88513;-72
2022/03/09 15:05:49;;;;;;;10.63;4.63;;;18.30;38.10;;;;;;4979108;28;90238;-72
2022/03/09 15:08:17;;;;;;;8.10;3.90;;;18.40;37.50;;;;;;4980298;28;88492;-72
2022/03/09 15:10:46;;;;;;;10.47;3.93;;;18.30;37.40;;;;;;4979768;28;88872;-72
2022/03/09 15:13:15;;;;;;;9.93;5.27;;;18.40;37.40;;;;;;4979891;28;88548;-72
2022/03/09 15:15:43;;;;;;;11.30;5.13;;;18.40;37.50;;;;;;4979055;28;90124;-72
2022/03/09 15:18:11;;;;;;;13.67;5.43;;;18.30;37.40;;;;;;4979439;28;88895;-72
2022/03/09 15:20:39;;;;;;;13.00;5.50;;;18.40;38.10;;;;;;4979270;28;89240;-71
2022/03/09 15:23:07;;;;;;;12.60;6.03;;;18.40;37.50;;;;;;4980443;28;88385;-72
2022/03/09 15:25:36;;;;;;;8.23;4.83;;;18.40;37.50;;;;;;4978677;28;89549;-72
2022/03/09 15:28:04;;;;;;;10.10;5.30;;;18.40;37.60;;;;;;4979302;28;92937;-72
2022/03/09 15:30:34;;;;;;;12.63;5.67;;;18.40;37.60;;;;;;4978963;28;88783;-72
2022/03/09 15:33:02;;;;;;;9.73;5.20;;;18.40;37.50;;;;;;4980281;28;88459;-73
2022/03/09 15:35:31;;;;;;;11.50;5.37;;;18.50;37.60;;;;;;4979351;28;91520;-72
2022/03/09 15:38:16;;;;;;;11.40;5.10;;;18.50;37.60;;;;;;4979391;28;88690;-72
2022/03/09 15:40:47;;;;;;;10.00;4.63;;;18.50;37.70;;;;;;4978182;28;90183;-72
2022/03/09 15:43:15;;;;;;;11.53;5.63;;;18.50;37.80;;;;;;4979914;28;88558;-72
2022/03/09 15:45:45;;;;;;;8.57;4.57;;;18.50;37.70;;;;;;4979140;28;90089;-72
2022/03/09 15:48:13;;;;;;;9.53;5.20;;;18.50;37.80;;;;;;4979177;28;88769;-72
2022/03/09 15:50:44;;;;;;;10.10;5.00;;;18.50;37.80;;;;;;4978616;28;88508;-72
2022/03/09 15:53:12;;;;;;;10.20;4.90;;;18.50;37.90;;;;;;4979211;28;88478;-72
2022/03/09 15:55:40;;;;;;;8.10;5.37;;;18.50;38.60;;;;;;4979359;28;90119;-73
2022/03/09 15:58:08;;;;;;;13.97;4.93;;;18.50;38.00;;;;;;4978841;28;89198;-72
2022/03/09 16:00:36;;;;;;;10.57;4.50;;;18.50;38.00;;;;;;4979209;28;88867;-72
2022/03/09 16:03:06;;;;;;;13.57;5.23;;;18.50;38.00;;;;;;4979198;28;88709;-72
2022/03/09 16:05:35;;;;;;;9.40;4.50;;;18.50;38.10;;;;;;4978976;28;89365;-72
2022/03/09 16:08:03;;;;;;;6.43;4.63;;;18.50;38.20;;;;;;4977920;28;88882;-72
2022/03/09 16:10:31;;;;;;;8.30;5.03;;;18.50;38.20;;;;;;4979268;28;89862;-72
2022/03/09 16:12:59;;;;;;;9.00;5.13;;;18.50;38.30;;;;;;4979552;28;88259;-72
2022/03/09 16:15:27;;;;;;;10.20;4.63;;;18.50;38.40;;;;;;4982373;28;93295;-72
2022/03/09 16:17:56;;;;;;;7.53;4.20;;;18.50;38.40;;;;;;4982458;28;88852;-71
2022/03/09 16:20:27;;;;;;;9.33;5.33;;;18.50;38.40;;;;;;4981316;28;88977;-71
2022/03/09 16:22:56;;;;;;;11.67;4.83;;;18.50;38.40;;;;;;4982787;28;88389;-72
2022/03/09 16:25:24;;;;;;;12.07;5.33;;;18.60;38.50;;;;;;4981600;28;89447;-72
2022/03/09 16:27:52;;;;;;;10.07;4.90;;;18.50;38.50;;;;;;4981750;28;89007;-71
2022/03/09 16:30:20;;;;;;;13.00;5.70;;;18.50;38.50;;;;;;4981810;28;88979;-72
2022/03/09 16:32:48;;;;;;;8.93;4.60;;;18.60;39.20;;;;;;4981661;28;88555;-71
2022/03/09 16:35:16;;;;;;;12.20;5.50;;;18.60;38.60;;;;;;4981669;28;90846;-71
2022/03/09 16:37:46;;;;;;;8.27;5.20;;;18.60;38.60;;;;;;4982374;28;90594;-72
2022/03/09 16:40:14;;;;;;;13.73;5.80;;;18.60;38.70;;;;;;4981936;28;88970;-72
2022/03/09 16:42:42;;;;;;;12.63;5.00;;;18.60;38.70;;;;;;4962608;28;88559;-71
2022/03/09 16:45:11;;;;;;;8.77;5.33;;;18.60;38.80;;;;;;4962002;28;89551;-72
2022/03/09 16:47:39;;;;;;;9.77;5.13;;;18.60;38.90;;;;;;4981020;28;89217;-72
2022/03/09 16:50:08;;;;;;;9.43;5.80;;;18.60;38.90;;;;;;4981529;28;88381;-72
2022/03/09 16:52:36;;;;;;;13.00;6.13;;;18.60;39.00;;;;;;4963032;28;90300;-72
2022/03/09 16:55:07;;;;;;;9.37;4.93;;;18.60;39.00;;;;;;4962480;28;88446;-72
2022/03/09 16:57:36;;;;;;;11.53;6.00;;;18.60;39.00;;;;;;4992605;28;90369;-71
2022/03/09 17:00:05;;;;;;;12.47;6.30;;;18.60;39.10;;;;;;5001914;28;92880;-72
2022/03/09 17:02:32;;;;;;;9.57;5.37;;;18.60;39.00;;;;;;5000855;28;88804;-72
2022/03/09 17:05:01;;;;;;;9.80;5.30;;;18.60;39.00;;;;;;5001066;28;88642;-72
2022/03/09 17:07:29;;;;;;;9.40;4.90;;;18.50;38.90;;;;;;5000936;28;90070;-72
2022/03/09 17:09:57;;;;;;;9.27;5.37;;;18.50;38.90;;;;;;5001148;28;88317;-72
2022/03/09 17:12:28;;;;;;;10.33;5.47;;;18.50;38.90;;;;;;5001680;28;88483;-72
2022/03/09 17:14:57;;;;;;;11.37;5.40;;;18.50;38.80;;;;;;5001220;28;90750;-72
2022/03/09 17:17:26;;;;;;;10.90;4.80;;;18.50;38.80;;;;;;5001281;28;93195;-72
2022/03/09 17:19:55;;;;;;;12.13;5.37;;;18.50;38.90;;;;;;5001323;28;89281;-72
2022/03/09 17:22:24;;;;;;;9.07;5.47;;;18.50;38.90;;;;;;5000923;28;88408;-72
2022/03/09 17:24:52;;;;;;;11.30;6.40;;;18.50;38.90;;;;;;5000996;28;93068;-72
2022/03/09 17:27:20;;;;;;;11.77;4.57;;;18.50;38.90;;;;;;5000307;28;90033;-72
2022/03/09 17:29:50;;;;;;;17.17;5.80;;;18.40;38.80;;;;;;5000686;28;88613;-72
2022/03/09 17:32:18;;;;;;;14.17;5.77;;;18.40;38.90;;;;;;5000854;28;88660;-72
2022/03/09 17:34:46;;;;;;;10.03;6.40;;;18.40;38.90;;;;;;5000271;28;90568;-72
2022/03/09 17:37:15;;;;;;;11.00;5.77;;;18.40;38.80;;;;;;5001224;28;90179;-73
2022/03/09 17:39:42;;;;;;;10.53;5.73;;;18.40;38.90;;;;;;5000400;28;88775;-72
2022/03/09 17:42:10;;;;;;;10.80;5.37;;;18.40;38.90;;;;;;5001807;28;88494;-72
2022/03/09 17:44:39;;;;;;;9.27;4.70;;;18.40;39.50;;;;;;5001136;28;90311;-72
2022/03/09 17:47:11;;;;;;;11.90;5.87;;;18.50;39.00;;;;;;5000265;28;91552;-72
2022/03/09 17:49:39;;;;;;;10.43;5.70;;;18.40;38.90;;;;;;5000578;28;89088;-72
2022/03/09 17:52:07;;;;;;;9.60;5.17;;;18.50;38.90;;;;;;5000958;28;88390;-72
2022/03/09 17:54:35;;;;;;;10.63;4.93;;;18.40;38.90;;;;;;5000705;28;89593;-72
2022/03/09 17:57:03;;;;;;;12.37;5.40;;;18.40;38.90;;;;;;4992121;28;89131;-71
2022/03/09 17:59:32;;;;;;;11.00;5.23;;;18.40;38.90;;;;;;4980896;28;89166;-72
2022/03/09 18:02:00;;;;;;;9.80;5.33;;;18.40;38.90;;;;;;4980878;28;88024;-72
2022/03/09 18:04:30;;;;;;;9.53;5.37;;;18.40;38.90;;;;;;4979908;28;89726;-71
2022/03/09 18:06:58;;;;;;;11.63;4.93;;;18.40;38.90;;;;;;4980335;28;89957;-72
2022/03/09 18:09:26;;;;;;;8.73;4.60;;;18.40;38.90;;;;;;4980026;28;89321;-72
2022/03/09 18:12:00;;;;;;;11.03;5.17;;;18.40;39.00;;;;;;4979620;28;88612;-72
2022/03/09 18:14:28;;;;;;;8.20;4.20;;;18.40;39.00;;;;;;4980655;28;90680;-72
2022/03/09 18:16:56;;;;;;;9.63;5.33;;;18.40;39.00;;;;;;4979511;28;89491;-72
2022/03/09 18:19:24;;;;;;;8.73;4.87;;;18.40;39.00;;;;;;4980378;28;89056;-72
2022/03/09 18:21:53;;;;;;;6.37;4.57;;;18.40;39.10;;;;;;4979779;28;88598;-72
2022/03/09 18:24:21;;;;;;;9.20;4.93;;;18.40;39.00;;;;;;4979833;28;89559;-72
2022/03/09 18:26:49;;;;;;;8.30;4.63;;;18.40;39.70;;;;;;4980029;28;90126;-73
2022/03/09 18:29:18;;;;;;;9.90;5.07;;;18.40;39.10;;;;;;4980092;28;88804;-72
2022/03/09 18:31:48;;;;;;;8.73;5.37;;;18.40;39.00;;;;;;4979709;28;88867;-72
2022/03/09 18:34:16;;;;;;;8.60;5.00;;;18.40;38.90;;;;;;4979908;28;90187;-72
2022/03/09 18:36:44;;;;;;;10.80;5.53;;;18.40;38.90;;;;;;4978893;28;89050;-72
2022/03/09 18:39:14;;;;;;;7.60;5.03;;;18.40;38.90;;;;;;4980040;28;90000;-72
2022/03/09 18:41:42;;;;;;;7.73;4.53;;;18.40;38.90;;;;;;4980550;28;88397;-72
2022/03/09 18:44:10;;;;;;;12.40;5.90;;;18.40;38.90;;;;;;4979720;28;91153;-72
2022/03/09 18:46:39;;;;;;;10.57;5.77;;;18.40;38.90;;;;;;4979774;28;92732;-72
2022/03/09 18:49:08;;;;;;;10.80;5.23;;;18.40;38.90;;;;;;4979526;28;88662;-72
2022/03/09 18:51:39;;;;;;;9.83;5.10;;;18.40;39.50;;;;;;4980303;28;88421;-72
2022/03/09 18:54:07;;;;;;;10.07;5.43;;;18.40;38.90;;;;;;4980724;28;91663;-68
2022/03/09 18:56:36;;;;;;;9.60;5.53;;;18.40;38.90;;;;;;4979223;28;89040;-73
2022/03/09 18:59:05;;;;;;;13.30;5.83;;;18.40;38.90;;;;;;4980665;28;88581;-72
2022/03/09 19:01:33;;;;;;;11.90;6.23;;;18.40;38.90;;;;;;4979883;28;88423;-72
2022/03/09 19:04:01;;;;;;;10.67;5.63;;;18.40;38.90;;;;;;4979918;28;93047;-72
2022/03/09 19:06:29;;;;;;;11.20;4.87;;;18.40;38.90;;;;;;4978625;28;89160;-72
2022/03/09 19:08:58;;;;;;;9.83;5.47;;;18.40;38.90;;;;;;4980788;28;88304;-69
2022/03/09 19:11:26;;;;;;;12.77;6.07;;;18.40;38.90;;;;;;4980529;28;88589;-70
2022/03/09 19:13:55;;;;;;;8.30;4.70;;;18.40;38.80;;;;;;4979000;28;90126;-69
2022/03/09 19:16:23;;;;;;;10.80;6.07;;;18.30;38.70;;;;;;4979103;28;90406;-69
2022/03/09 19:18:52;;;;;;;9.37;5.67;;;18.30;38.70;;;;;;4980231;28;91177;-69
2022/03/09 19:21:20;;;;;;;9.97;5.80;;;18.30;38.70;;;;;;4979257;28;88677;-70
2022/03/09 19:23:48;;;;;;;10.97;5.73;;;18.30;38.60;;;;;;4978745;28;89581;-69
2022/03/09 19:26:16;;;;;;;13.57;5.93;;;18.30;38.60;;;;;;4978829;28;90063;-69
2022/03/09 19:28:44;;;;;;;10.13;6.17;;;18.30;38.60;;;;;;4979533;28;88621;-69
2022/03/09 19:31:14;;;;;;;12.77;6.80;;;18.30;38.60;;;;;;4979264;28;88545;-69
2022/03/09 19:33:42;;;;;;;11.43;6.27;;;18.30;38.60;;;;;;4979352;28;90256;-70
2022/03/09 19:36:11;;;;;;;12.37;5.97;;;18.30;38.60;;;;;;4978758;28;88933;-69
2022/03/09 19:38:39;;;;;;;10.13;5.93;;;18.30;39.20;;;;;;4979808;28;88323;-69
2022/03/09 19:41:07;;;;;;;14.70;6.90;;;18.30;38.50;;;;;;4979480;28;88419;-69
2022/03/09 19:43:35;;;;;;;12.17;5.87;;;18.30;38.50;;;;;;4979257;28;90757;-69
2022/03/09 19:46:03;;;;;;;12.90;6.87;;;18.30;38.50;;;;;;4978685;28;89487;-69
2022/03/09 19:48:33;;;;;;;10.43;6.30;;;18.30;38.40;;;;;;4982933;28;89154;-69
2022/03/09 19:51:01;;;;;;;12.43;7.07;;;18.30;38.50;;;;;;4985290;28;88624;-70
2022/03/09 19:53:29;;;;;;;13.50;6.53;;;18.40;38.60;;;;;;4985038;28;90267;-69
2022/03/09 19:55:57;;;;;;;11.03;6.37;;;18.30;38.50;;;;;;4985469;28;89521;-69
2022/03/09 19:58:25;;;;;;;14.90;7.53;;;18.30;38.50;;;;;;4985654;28;88949;-69
2022/03/09 20:00:53;;;;;;;13.27;6.83;;;18.30;38.50;;;;;;4985133;28;88476;-69
2022/03/09 20:03:23;;;;;;;10.90;5.80;;;18.30;38.50;;;;;;4985081;28;90518;-69
2022/03/09 20:05:53;;;;;;;11.77;5.90;;;18.30;38.50;;;;;;4985275;28;91808;-69
2022/03/09 20:08:23;;;;;;;10.13;6.03;;;18.20;38.30;;;;;;4985146;28;88607;-69
2022/03/09 20:10:51;;;;;;;10.80;5.77;;;18.20;38.30;;;;;;4985485;28;88440;-68
2022/03/09 20:13:19;;;;;;;10.23;5.90;;;18.30;38.30;;;;;;4984758;28;88541;-69
2022/03/09 20:15:47;;;;;;;11.80;6.30;;;18.20;38.20;;;;;;4983934;28;90447;-69
2022/03/09 20:18:16;;;;;;;13.57;7.03;;;18.20;38.10;;;;;;4985612;28;91319;-69
2022/03/09 20:20:44;;;;;;;15.33;6.70;;;18.20;38.00;;;;;;4985238;28;88472;-69
2022/03/09 20:23:13;;;;;;;13.30;7.00;;;18.20;38.00;;;;;;4985284;28;90635;-69
2022/03/09 20:25:47;;;;;;;15.30;7.03;;;18.20;37.90;;;;;;4985394;28;90141;-69
2022/03/09 20:28:15;;;;;;;13.77;6.93;;;18.20;37.90;;;;;;4985370;28;88962;-69
2022/03/09 20:30:43;;;;;;;11.70;7.03;;;18.20;37.80;;;;;;4985080;28;88441;-70
2022/03/09 20:33:11;;;;;;;15.53;6.97;;;18.20;37.80;;;;;;4985503;28;90615;-69
2022/03/09 20:35:39;;;;;;;11.83;6.93;;;18.20;37.80;;;;;;4984834;28;90124;-69
2022/03/09 20:38:07;;;;;;;12.30;6.27;;;18.20;37.70;;;;;;4984045;28;88492;-69
2022/03/09 20:40:37;;;;;;;15.30;7.57;;;18.20;37.60;;;;;;4984799;28;88603;-70
2022/03/09 20:43:05;;;;;;;13.30;6.40;;;18.10;37.50;;;;;;4984574;28;89727;-70
2022/03/09 20:45:33;;;;;;;12.23;6.77;;;18.20;37.50;;;;;;4984847;28;89884;-69
2022/03/09 20:48:01;;;;;;;10.80;6.57;;;18.20;37.50;;;;;;4984554;28;88695;-70
2022/03/09 20:50:31;;;;;;;14.30;7.07;;;18.10;37.30;;;;;;4984315;28;88681;-69
2022/03/09 20:52:59;;;;;;;14.27;6.40;;;18.10;37.30;;;;;;4984668;28;90126;-69
2022/03/09 20:55:29;;;;;;;11.47;6.20;;;18.10;37.30;;;;;;4984660;28;88927;-69
2022/03/09 20:57:59;;;;;;;9.37;6.37;;;18.10;37.30;;;;;;5001139;28;88413;-70
2022/03/09 21:00:27;;;;;;;12.47;7.03;;;18.10;37.30;;;;;;4998407;28;88533;-69
2022/03/09 21:02:55;;;;;;;16.60;6.57;;;18.10;37.30;;;;;;5001374;28;91137;-70
2022/03/09 21:05:23;;;;;;;9.90;5.60;;;18.10;37.20;;;;;;4991560;28;90059;-70
2022/03/09 21:07:51;;;;;;;15.03;7.30;;;18.10;37.10;;;;;;4980965;28;88789;-69
2022/03/09 21:10:19;;;;;;;14.30;7.67;;;18.10;37.10;;;;;;4982072;28;88327;-70
2022/03/09 21:12:47;;;;;;;12.80;6.77;;;18.10;37.00;;;;;;5001679;28;88451;-70
2022/03/09 21:15:16;;;;;;;9.70;6.40;;;18.00;36.90;;;;;;5000869;28;90080;-70
2022/03/09 21:17:44;;;;;;;11.87;6.67;;;18.00;36.90;;;;;;5001082;28;88952;-69
2022/03/09 21:20:12;;;;;;;11.83;5.93;;;18.00;36.90;;;;;;4991928;28;88437;-70
2022/03/09 21:22:40;;;;;;;14.07;7.10;;;18.00;36.90;;;;;;4981466;28;90068;-69
2022/03/09 21:25:10;;;;;;;11.20;6.80;;;18.00;36.80;;;;;;4986693;28;89604;-69
2022/03/09 21:27:39;;;;;;;12.73;6.33;;;18.00;36.70;;;;;;4961952;28;88373;-70
2022/03/09 21:30:08;;;;;;;13.87;6.67;;;18.00;36.60;;;;;;4961733;28;88536;-69
2022/03/09 21:32:41;;;;;;;13.37;5.67;;;18.00;36.60;;;;;;4989248;28;91830;-70
2022/03/09 21:35:10;;;;;;;12.60;6.20;;;18.00;36.60;;;;;;5000147;28;90306;-69
2022/03/09 21:37:41;;;;;;;10.90;6.57;;;18.00;36.50;;;;;;4980751;28;88772;-69
2022/03/09 21:40:10;;;;;;;13.83;5.90;;;18.00;36.50;;;;;;4981218;28;88513;-69
2022/03/09 21:42:38;;;;;;;12.43;7.00;;;18.00;36.50;;;;;;5000323;28;90664;-69
2022/03/09 21:45:07;;;;;;;11.23;6.93;;;18.00;36.50;;;;;;5000843;28;90626;-70
2022/03/09 21:47:35;;;;;;;13.53;6.70;;;18.00;36.40;;;;;;4981578;28;89479;-69
2022/03/09 21:50:04;;;;;;;14.37;6.93;;;18.00;36.40;;;;;;4981217;28;88429;-70
2022/03/09 21:52:32;;;;;;;9.97;6.57;;;18.00;36.40;;;;;;4980129;28;89015;-69
2022/03/09 21:55:00;;;;;;;13.23;6.50;;;18.00;36.30;;;;;;4980939;28;89365;-69
2022/03/09 21:57:28;;;;;;;11.90;6.53;;;18.00;36.30;;;;;;4998293;28;89928;-70
2022/03/09 21:59:56;;;;;;;13.23;7.40;;;18.00;36.20;;;;;;5001117;28;88427;-69
2022/03/09 22:02:26;;;;;;;10.33;5.20;;;18.00;36.20;;;;;;4981816;28;89732;-70
2022/03/09 22:04:54;;;;;;;17.17;7.40;;;17.90;36.10;;;;;;4980353;28;90022;-70
2022/03/09 22:07:23;;;;;;;14.70;6.67;;;17.90;36.00;;;;;;4997342;28;89129;-69
2022/03/09 22:09:51;;;;;;;12.37;6.23;;;17.90;36.00;;;;;;4983648;28;88559;-69
2022/03/09 22:12:19;;;;;;;13.67;6.07;;;17.90;36.00;;;;;;4979619;28;93285;-69
2022/03/09 22:14:47;;;;;;;13.33;6.73;;;17.90;36.00;;;;;;4980735;28;88869;-70
2022/03/09 22:17:15;;;;;;;10.70;6.43;;;17.90;36.00;;;;;;4979634;28;88491;-70
2022/03/09 22:19:44;;;;;;;13.93;5.73;;;17.90;36.00;;;;;;4980313;28;88659;-70
2022/03/09 22:22:12;;;;;;;10.77;6.30;;;17.90;36.00;;;;;;4995779;28;90718;-70
2022/03/09 22:24:41;;;;;;;10.90;6.17;;;17.90;36.00;;;;;;5000273;28;90083;-70
2022/03/09 22:27:09;;;;;;;11.07;5.90;;;17.90;36.00;;;;;;4983999;28;88656;-70
2022/03/09 22:29:37;;;;;;;9.10;6.37;;;17.90;36.00;;;;;;4979950;28;89420;-69
2022/03/09 22:32:06;;;;;;;10.90;6.43;;;17.90;36.00;;;;;;4994181;28;88415;-70
2022/03/09 22:34:39;;;;;;;11.43;6.07;;;17.90;36.00;;;;;;5000552;28;89788;-69
2022/03/09 22:37:07;;;;;;;9.33;5.33;;;17.90;36.00;;;;;;5000157;28;88142;-69
2022/03/09 22:39:52;;;;;;;9.27;5.07;;;17.90;36.00;;;;;;4999563;28;88634;-69
2022/03/09 22:42:20;;;;;;;9.77;5.73;;;17.90;36.00;;;;;;4980342;28;89829;-68
2022/03/09 22:44:48;;;;;;;13.87;6.27;;;17.90;36.00;;;;;;4980056;28;90201;-69
2022/03/09 22:47:16;;;;;;;12.63;5.70;;;17.90;35.90;;;;;;4997190;28;88746;-70
2022/03/09 22:49:44;;;;;;;10.10;5.70;;;17.90;35.90;;;;;;5000339;28;88515;-69
2022/03/09 22:52:12;;;;;;;9.13;5.47;;;17.90;35.90;;;;;;4981632;28;90992;-70